Time;durP1;ratioP1;P1;durP2;ratioP2;P2;SDS_P1;SDS_P2;PMS_P1;PMS_P2;Temp;Humidity;BMP_temperature;BMP_pressure;BME280_temperature;BME280_humidity;BME280_pressure;Samples;Min_cycle;Max_cycle;Signal;HPM_P1;HPM_P2
2023/06/09 03:17:17;;;;;;;7.03;2.95;;;15.20;83.40;;;;;;6211236;22;88348;-84
2023/06/09 03:19:43;;;;;;;4.47;2.72;;;15.20;83.50;;;;;;6250826;22;88325;-82
2023/06/09 03:22:09;;;;;;;6.63;3.20;;;15.20;83.90;;;;;;6249674;22;88075;-81
2023/06/09 03:24:35;;;;;;;4.55;2.72;;;15.20;84.20;;;;;;6249708;22;88374;-84
2023/06/09 03:27:00;;;;;;;4.28;2.65;;;15.10;84.10;;;;;;6250488;22;87439;-84
2023/06/09 03:29:30;;;;;;;7.57;3.25;;;15.10;84.30;;;;;;6251156;22;89694;-83
2023/06/09 03:31:56;;;;;;;7.43;2.75;;;15.10;84.80;;;;;;6252159;22;87325;-83
2023/06/09 03:34:22;;;;;;;5.00;2.63;;;15.10;84.90;;;;;;6250563;22;87257;-80
2023/06/09 03:36:48;;;;;;;6.97;3.00;;;15.10;84.90;;;;;;6250041;22;88613;-81
2023/06/09 03:39:14;;;;;;;6.30;2.63;;;15.10;85.00;;;;;;6249382;22;87619;-80
2023/06/09 03:41:40;;;;;;;4.97;2.70;;;15.10;85.10;;;;;;6249830;22;87668;-80
2023/06/09 03:44:05;;;;;;;4.65;2.30;;;15.10;85.50;;;;;;6250437;22;87277;-80
2023/06/09 03:46:31;;;;;;;5.95;2.90;;;15.10;85.30;;;;;;6249434;22;87462;-80
2023/06/09 03:48:57;;;;;;;4.80;2.72;;;15.10;85.40;;;;;;6248997;22;88571;-81
2023/06/09 03:51:23;;;;;;;6.13;2.75;;;15.10;85.40;;;;;;6250515;22;88271;-79
2023/06/09 03:53:48;;;;;;;5.82;2.72;;;15.20;85.60;;;;;;6251696;22;87098;-78
2023/06/09 03:56:14;;;;;;;7.78;3.33;;;15.50;84.70;;;;;;6251780;22;87538;-81
2023/06/09 03:58:40;;;;;;;5.10;2.85;;;15.80;83.00;;;;;;6252057;22;88300;-79
2023/06/09 04:01:10;;;;;;;6.18;2.88;;;16.10;81.50;;;;;;6249008;22;87472;-82
2023/06/09 04:03:39;;;;;;;8.25;3.45;;;16.40;80.10;;;;;;6246786;22;87665;-80
2023/06/09 04:06:06;;;;;;;5.55;2.65;;;16.70;79.00;;;;;;6249583;22;86629;-79
2023/06/09 04:08:31;;;;;;;5.38;2.88;;;17.10;77.00;;;;;;6247360;22;88174;-80
2023/06/09 04:10:57;;;;;;;5.55;2.85;;;17.40;75.90;;;;;;6233364;22;87701;-82
2023/06/09 04:13:23;;;;;;;7.50;3.15;;;17.70;75.00;;;;;;6231672;22;88630;-80
2023/06/09 04:15:49;;;;;;;6.38;3.40;;;18.00;73.70;;;;;;6243535;22;87125;-81
2023/06/09 04:18:15;;;;;;;5.57;2.83;;;18.20;72.60;;;;;;6216507;22;87601;-79
2023/06/09 04:20:41;;;;;;;5.70;3.13;;;18.60;72.40;;;;;;6218516;22;87638;-78
2023/06/09 04:23:08;;;;;;;6.03;3.40;;;19.00;70.50;;;;;;6219041;22;87310;-77
2023/06/09 04:25:35;;;;;;;6.70;3.47;;;19.20;69.10;;;;;;6219426;22;87435;-77
2023/06/09 04:28:03;;;;;;;7.13;3.40;;;19.50;68.30;;;;;;6218129;22;88164;-77
2023/06/09 04:30:30;;;;;;;7.60;2.90;;;19.80;67.40;;;;;;6219094;22;88203;-82
2023/06/09 04:33:01;;;;;;;4.47;2.72;;;20.20;66.00;;;;;;6218683;22;87373;-82
2023/06/09 04:35:27;;;;;;;3.75;2.78;;;20.50;64.90;;;;;;6219089;22;87340;-83
2023/06/09 04:37:53;;;;;;;6.15;2.60;;;20.90;63.50;;;;;;6218198;22;88275;-79
2023/06/09 04:40:23;;;;;;;5.50;3.03;;;21.20;62.30;;;;;;6218331;22;88754;-82
2023/06/09 04:42:55;;;;;;;5.68;2.65;;;21.50;61.20;;;;;;6218624;22;87601;-84
2023/06/09 04:45:27;;;;;;;5.13;2.65;;;21.80;60.00;;;;;;6219714;22;86925;-82
2023/06/09 04:47:55;;;;;;;5.53;2.70;;;22.10;59.30;;;;;;6218576;22;89190;-84
2023/06/09 04:50:21;;;;;;;4.93;2.72;;;22.50;58.50;;;;;;6219303;22;87312;-85
2023/06/09 04:52:47;;;;;;;6.28;2.85;;;22.90;57.00;;;;;;6218268;22;87410;-84
2023/06/09 04:55:13;;;;;;;5.25;2.50;;;23.20;56.80;;;;;;6220455;22;86694;-85
2023/06/09 04:57:39;;;;;;;4.35;2.80;;;23.50;55.50;;;;;;6192413;22;89645;-85
2023/06/09 05:00:07;;;;;;;9.95;2.28;;;24.00;54.50;;;;;;6219727;22;88228;-81
2023/06/09 05:02:33;;;;;;;5.72;3.00;;;24.40;54.00;;;;;;6217969;22;88402;-83
2023/06/09 05:04:59;;;;;;;5.00;3.22;;;24.70;52.80;;;;;;6219493;22;87378;-82
2023/06/09 05:07:25;;;;;;;8.50;3.25;;;25.20;52.90;;;;;;6218391;22;87926;-82
2023/06/09 05:09:50;;;;;;;7.75;3.13;;;25.70;51.90;;;;;;6218213;22;88308;-82
2023/06/09 05:12:16;;;;;;;5.93;3.15;;;26.20;50.60;;;;;;6218414;22;87039;-83
2023/06/09 05:14:42;;;;;;;6.50;3.45;;;26.50;50.00;;;;;;6219048;22;87326;-82
2023/06/09 05:17:08;;;;;;;7.88;3.67;;;26.40;49.50;;;;;;6217932;22;87551;-80
2023/06/09 05:19:33;;;;;;;5.13;3.88;;;26.30;49.60;;;;;;6219120;22;88374;-81
2023/06/09 05:21:59;;;;;;;7.22;3.75;;;26.30;48.80;;;;;;6218353;22;87273;-82
2023/06/09 05:24:25;;;;;;;4.43;3.58;;;26.20;49.60;;;;;;6226574;22;87369;-83
2023/06/09 05:26:50;;;;;;;5.82;3.38;;;26.40;48.80;;;;;;6223004;22;89013;-83
2023/06/09 05:29:16;;;;;;;6.47;3.33;;;26.70;48.90;;;;;;6218383;22;89432;-80
2023/06/09 05:31:42;;;;;;;4.38;2.45;;;27.10;48.40;;;;;;6218804;22;87333;-82
2023/06/09 05:34:07;;;;;;;4.82;3.25;;;27.40;48.30;;;;;;6219109;22;87654;-80
2023/06/09 05:36:34;;;;;;;5.03;3.63;;;28.00;47.20;;;;;;6218205;22;88590;-81
2023/06/09 05:39:00;;;;;;;5.28;3.65;;;28.40;46.20;;;;;;6191191;22;89938;-82
2023/06/09 05:41:26;;;;;;;5.47;3.03;;;28.70;45.70;;;;;;6218816;22;86995;-79
2023/06/09 05:43:52;;;;;;;5.32;3.75;;;28.80;45.10;;;;;;6219197;22;86805;-79
2023/06/09 05:46:18;;;;;;;6.20;4.07;;;28.90;45.00;;;;;;6218474;22;88079;-81
2023/06/09 05:48:44;;;;;;;4.80;3.30;;;28.70;44.60;;;;;;6219244;22;87935;-82
2023/06/09 05:51:09;;;;;;;3.90;2.60;;;29.10;43.90;;;;;;6219052;22;88286;-81
2023/06/09 05:53:35;;;;;;;5.10;2.13;;;29.40;43.60;;;;;;6218128;22;87189;-80
2023/06/09 05:56:02;;;;;;;6.00;3.47;;;29.90;43.20;;;;;;6191315;22;88608;-79
2023/06/09 05:58:28;;;;;;;4.05;3.20;;;30.20;42.30;;;;;;6218619;22;87940;-80
2023/06/09 06:00:57;;;;;;;3.53;3.22;;;30.90;42.10;;;;;;6218310;22;87416;-80
2023/06/09 06:03:23;;;;;;;6.30;3.70;;;30.70;41.10;;;;;;6218634;22;87126;-79
2023/06/09 06:05:49;;;;;;;4.30;3.40;;;31.30;41.00;;;;;;6218282;22;87747;-79
2023/06/09 06:08:14;;;;;;;4.68;3.58;;;31.40;40.30;;;;;;6218403;22;86612;-76
2023/06/09 06:10:40;;;;;;;6.28;4.15;;;31.50;40.20;;;;;;6218928;22;87202;-81
2023/06/09 06:13:06;;;;;;;6.82;3.78;;;31.60;40.50;;;;;;6218412;22;87525;-79
2023/06/09 06:15:31;;;;;;;4.72;3.83;;;31.60;40.60;;;;;;6217375;22;88545;-79
2023/06/09 06:17:57;;;;;;;6.93;3.90;;;32.00;40.40;;;;;;6216695;22;87120;-82
2023/06/09 06:20:23;;;;;;;6.32;4.05;;;32.50;39.80;;;;;;6218304;22;87243;-84
2023/06/09 06:22:49;;;;;;;4.30;3.90;;;32.90;39.80;;;;;;6217552;22;87051;-80
2023/06/09 06:25:17;;;;;;;6.05;3.90;;;33.20;39.10;;;;;;6217737;22;87775;-84
2023/06/09 06:27:43;;;;;;;6.15;4.10;;;33.30;39.10;;;;;;6217257;22;87784;-82
2023/06/09 06:30:09;;;;;;;4.85;3.60;;;33.40;38.60;;;;;;6218073;22;87402;-80
2023/06/09 06:32:36;;;;;;;7.03;4.65;;;33.30;39.00;;;;;;6218156;22;86690;-81
2023/06/09 06:35:02;;;;;;;9.13;4.07;;;34.60;38.40;;;;;;6217408;22;89205;-81
2023/06/09 06:37:28;;;;;;;7.00;4.45;;;35.50;36.60;;;;;;6217970;22;87315;-84
2023/06/09 06:39:54;;;;;;;9.68;4.55;;;35.50;36.70;;;;;;6218050;22;88080;-81
2023/06/09 06:42:20;;;;;;;10.23;4.47;;;35.80;36.40;;;;;;6218462;22;87532;-83
2023/06/09 06:44:46;;;;;;;22.20;3.83;;;35.70;35.60;;;;;;6218176;22;88024;-79
2023/06/09 06:47:11;;;;;;;9.52;3.58;;;35.50;36.90;;;;;;6217203;22;87248;-84
2023/06/09 06:49:37;;;;;;;5.80;4.35;;;35.60;36.10;;;;;;6218015;22;87626;-83
2023/06/09 06:52:03;;;;;;;10.73;4.63;;;35.70;36.70;;;;;;6219366;22;87237;-84
2023/06/09 06:54:28;;;;;;;10.02;4.47;;;36.10;37.00;;;;;;6217731;22;87429;-82
2023/06/09 06:56:54;;;;;;;7.15;5.35;;;36.00;35.60;;;;;;6217645;22;86951;-83
2023/06/09 06:59:20;;;;;;;5.18;4.65;;;36.50;34.60;;;;;;6217757;22;87680;-82
2023/06/09 07:01:46;;;;;;;4.97;4.03;;;36.10;35.00;;;;;;6217611;22;87444;-81
2023/06/09 07:04:12;;;;;;;8.00;4.80;;;35.70;35.10;;;;;;6217307;22;88194;-84
2023/06/09 07:06:38;;;;;;;6.55;4.18;;;35.60;35.70;;;;;;6217966;22;88280;-80
2023/06/09 07:09:04;;;;;;;10.05;4.75;;;36.40;36.00;;;;;;6218733;22;87403;-82
2023/06/09 07:11:32;;;;;;;8.65;4.70;;;37.40;35.50;;;;;;6218783;22;87811;-84
2023/06/09 07:13:58;;;;;;;6.72;4.80;;;38.30;34.50;;;;;;6217678;22;88675;-82
2023/06/09 07:16:23;;;;;;;7.22;6.03;;;38.50;33.30;;;;;;6217675;22;87929;-85
2023/06/09 07:18:49;;;;;;;6.60;5.82;;;39.60;33.20;;;;;;6219989;22;87350;-84
2023/06/09 07:21:15;;;;;;;6.93;6.10;;;40.30;32.80;;;;;;6219567;22;86820;-84
2023/06/09 07:23:40;;;;;;;6.30;5.70;;;40.80;31.50;;;;;;6219819;22;88304;-87
2023/06/09 07:26:06;;;;;;;6.95;5.22;;;41.60;31.30;;;;;;6219904;22;87826;-86
2023/06/09 07:28:31;;;;;;;6.88;5.53;;;41.90;31.30;;;;;;6218815;22;88305;-84
2023/06/09 07:30:57;;;;;;;9.00;6.15;;;42.60;30.10;;;;;;6218398;22;87178;-84
2023/06/09 07:33:23;;;;;;;9.32;5.28;;;42.40;30.00;;;;;;6218417;22;87950;-82
2023/06/09 07:35:49;;;;;;;9.18;5.78;;;42.10;29.60;;;;;;6217229;22;87423;-85
2023/06/09 07:38:16;;;;;;;13.52;6.18;;;41.90;29.70;;;;;;6220943;22;87080;-82
2023/06/09 07:40:42;;;;;;;13.20;5.93;;;41.40;30.10;;;;;;6223505;22;87148;-83
2023/06/09 07:43:08;;;;;;;9.48;5.97;;;41.40;31.20;;;;;;6219052;22;87686;-83
2023/06/09 07:45:34;;;;;;;7.35;6.28;;;42.30;30.40;;;;;;6218494;22;86673;-84
2023/06/09 07:47:59;;;;;;;8.63;6.43;;;43.50;29.50;;;;;;6217966;22;87427;-84
2023/06/09 07:50:25;;;;;;;6.47;5.88;;;43.20;29.80;;;;;;6218708;22;87410;-86
2023/06/09 07:52:51;;;;;;;6.80;5.90;;;42.70;29.90;;;;;;6216710;22;89082;-84
2023/06/09 07:55:17;;;;;;;10.43;6.72;;;42.70;30.00;;;;;;6216227;22;88136;-83
2023/06/09 07:57:43;;;;;;;6.57;6.00;;;42.60;29.60;;;;;;6218979;22;87316;-84
2023/06/09 08:00:10;;;;;;;6.47;5.82;;;42.30;29.80;;;;;;6218625;22;87736;-83
2023/06/09 08:02:40;;;;;;;8.10;7.40;;;43.10;29.60;;;;;;6218573;22;88871;-83
2023/06/09 08:05:06;;;;;;;7.30;5.90;;;43.20;28.70;;;;;;6218746;22;87266;-84
2023/06/09 08:07:32;;;;;;;6.75;6.15;;;43.30;29.30;;;;;;6217176;22;87542;-83
2023/06/09 08:09:58;;;;;;;9.65;7.70;;;43.70;29.10;;;;;;6219063;22;86603;-83
2023/06/09 08:12:23;;;;;;;8.25;7.40;;;43.30;28.90;;;;;;6218445;22;88765;-85
2023/06/09 08:14:49;;;;;;;8.85;7.20;;;43.50;29.20;;;;;;6217551;22;88157;-84
2023/06/09 08:17:15;;;;;;;7.22;6.53;;;43.50;29.40;;;;;;6216763;22;88142;-83
2023/06/09 08:19:40;;;;;;;7.97;7.00;;;43.30;29.20;;;;;;6219765;22;87151;-87
2023/06/09 08:22:06;;;;;;;8.93;8.13;;;44.10;30.00;;;;;;6217781;22;87982;-83
2023/06/09 08:24:31;;;;;;;7.68;6.97;;;44.60;30.60;;;;;;6218134;22;87522;-83
2023/06/09 08:26:59;;;;;;;9.27;7.97;;;44.20;31.00;;;;;;6217923;22;87350;-83
2023/06/09 08:29:25;;;;;;;;;;;44.00;32.20;;;;;;6218947;22;87034;-84
2023/06/09 08:31:51;;;;;;;12.05;7.65;;;43.80;31.70;;;;;;6192958;22;91300;-83
2023/06/09 08:34:16;;;;;;;9.05;8.15;;;44.40;32.50;;;;;;6218877;22;86670;-82
2023/06/09 08:36:42;;;;;;;10.65;9.30;;;45.00;31.40;;;;;;6219132;22;87359;-83
2023/06/09 08:39:07;;;;;;;9.50;8.60;;;45.00;30.70;;;;;;6219316;22;87356;-83
2023/06/09 08:41:38;;;;;;;6.68;5.75;;;45.00;31.20;;;;;;6218201;22;88871;-83
2023/06/09 08:44:07;;;;;;;10.05;8.85;;;44.50;31.10;;;;;;6217948;22;89223;-84
2023/06/09 08:46:36;;;;;;;9.57;8.68;;;44.60;31.70;;;;;;6218754;22;87533;-85
2023/06/09 08:49:02;;;;;;;12.00;8.05;;;45.00;30.40;;;;;;6219204;22;87388;-84
2023/06/09 08:51:28;;;;;;;11.98;8.65;;;45.00;30.30;;;;;;6218274;22;87394;-83
2023/06/09 08:53:54;;;;;;;10.38;9.00;;;44.90;30.30;;;;;;6191816;22;88844;-83
2023/06/09 08:56:23;;;;;;;8.55;7.75;;;45.70;31.00;;;;;;6219289;22;86991;-85
2023/06/09 08:58:51;;;;;;;10.27;9.27;;;46.20;30.00;;;;;;6219556;22;86229;-85
2023/06/09 09:01:18;;;;;;;9.70;8.93;;;45.40;30.00;;;;;;6218745;22;88095;-84
2023/06/09 09:03:46;;;;;;;9.10;8.15;;;46.10;28.40;;;;;;6218015;22;87475;-85
2023/06/09 09:06:13;;;;;;;9.80;8.82;;;46.20;29.20;;;;;;6218032;22;88269;-84
2023/06/09 09:08:39;;;;;;;9.45;8.48;;;46.40;28.60;;;;;;6218937;22;87284;-83
2023/06/09 09:11:05;;;;;;;11.88;8.88;;;46.80;29.00;;;;;;6218791;22;88869;-87
2023/06/09 09:13:31;;;;;;;10.18;9.18;;;47.00;29.50;;;;;;6218237;22;88146;-83
2023/06/09 09:15:59;;;;;;;9.65;8.85;;;47.50;28.60;;;;;;6218680;22;87380;-82
2023/06/09 09:18:31;;;;;;;9.90;9.10;;;47.00;28.60;;;;;;6218758;22;87474;-83
2023/06/09 09:20:57;;;;;;;9.30;8.60;;;47.00;28.20;;;;;;6218516;22;88540;-83
2023/06/09 09:23:30;;;;;;;9.98;9.07;;;46.60;29.20;;;;;;6218602;22;87605;-85
2023/06/09 09:26:00;;;;;;;11.30;9.15;;;46.60;29.50;;;;;;6218000;22;87282;-84
2023/06/09 09:28:37;;;;;;;9.93;9.13;;;46.90;28.50;;;;;;6219050;22;87391;-83
2023/06/09 09:31:02;;;;;;;9.68;8.88;;;46.30;28.90;;;;;;6218078;22;89438;-83
2023/06/09 09:33:28;;;;;;;11.20;10.10;;;46.50;29.30;;;;;;6217611;22;88547;-84
2023/06/09 09:35:58;;;;;;;9.73;8.93;;;46.00;29.30;;;;;;6217706;22;87391;-87
2023/06/09 09:38:29;;;;;;;8.55;7.75;;;45.70;30.10;;;;;;6219256;22;87378;-86
2023/06/09 09:40:56;;;;;;;8.43;7.72;;;45.90;29.80;;;;;;6217964;22;88140;-84
2023/06/09 09:43:27;;;;;;;9.57;8.77;;;46.30;28.90;;;;;;6218049;22;87749;-86
2023/06/09 09:45:54;;;;;;;13.77;8.40;;;46.20;29.00;;;;;;6218615;22;87046;-85
2023/06/09 09:48:23;;;;;;;9.90;8.95;;;45.90;29.00;;;;;;6219082;22;87000;-84
2023/06/09 09:50:51;;;;;;;10.60;9.63;;;46.00;30.10;;;;;;6218154;22;87717;-85
2023/06/09 09:53:20;;;;;;;8.90;8.13;;;45.90;30.00;;;;;;6221715;22;87487;-83
2023/06/09 09:55:46;;;;;;;8.95;8.13;;;45.50;30.20;;;;;;6218625;22;88214;-84
2023/06/09 09:58:14;;;;;;;8.27;7.50;;;45.10;30.50;;;;;;6218030;22;87197;-86
2023/06/09 10:00:43;;;;;;;8.85;7.82;;;44.40;31.80;;;;;;6218914;22;88999;-82
2023/06/09 10:03:19;;;;;;;7.50;6.80;;;43.60;31.50;;;;;;6218526;22;87783;-84
2023/06/09 10:05:47;;;;;;;7.40;6.68;;;42.40;32.60;;;;;;6218590;22;87575;-82
2023/06/09 10:08:22;;;;;;;7.65;5.30;;;40.70;32.20;;;;;;6217831;22;87329;-82
2023/06/09 10:10:49;;;;;;;6.00;5.40;;;39.00;34.70;;;;;;6218781;22;87566;-83
2023/06/09 10:13:15;;;;;;;5.25;4.57;;;37.80;35.70;;;;;;6219068;22;87680;-82
2023/06/09 10:15:44;;;;;;;8.75;4.38;;;36.80;38.20;;;;;;6218489;22;87241;-83
2023/06/09 10:18:12;;;;;;;5.03;4.53;;;36.10;38.50;;;;;;6218181;22;87498;-82
2023/06/09 10:20:40;;;;;;;4.82;3.85;;;35.40;38.60;;;;;;6189900;22;90736;-81
2023/06/09 10:23:07;;;;;;;6.43;4.03;;;34.80;39.00;;;;;;6217103;22;89191;-81
2023/06/09 10:25:33;;;;;;;5.70;4.07;;;34.20;41.20;;;;;;6218245;22;86980;-82
2023/06/09 10:27:58;;;;;;;5.40;3.65;;;33.70;40.70;;;;;;6219613;22;87331;-84
2023/06/09 10:30:25;;;;;;;5.50;3.60;;;33.20;42.30;;;;;;6217746;22;87877;-82
2023/06/09 10:32:57;;;;;;;4.63;3.08;;;33.10;42.20;;;;;;6216941;22;87825;-82
2023/06/09 10:35:28;;;;;;;6.95;4.57;;;32.90;42.80;;;;;;6215621;22;87305;-82
2023/06/09 10:37:56;;;;;;;4.65;4.13;;;32.40;43.70;;;;;;6215639;22;86636;-84
2023/06/09 10:40:43;;;;;;;7.78;3.60;;;32.20;45.10;;;;;;6216997;22;87602;-81
2023/06/09 10:43:12;;;;;;;5.90;4.05;;;32.30;45.00;;;;;;6217791;22;87260;-82
2023/06/09 10:45:49;;;;;;;;;;;32.10;44.80;;;;;;6217334;22;88495;-84
2023/06/09 10:48:50;;;;;;;6.15;3.78;;;32.10;46.00;;;;;;6218209;22;87486;-83
2023/06/09 10:51:27;;;;;;;6.43;3.17;;;32.10;45.10;;;;;;6216167;22;87775;-82
2023/06/09 10:54:07;;;;;;;5.18;3.35;;;31.80;44.90;;;;;;6218006;22;88310;-81
2023/06/09 10:56:35;;;;;;;5.25;3.38;;;31.60;46.10;;;;;;6219353;22;87293;-81
2023/06/09 10:59:01;;;;;;;5.60;3.53;;;31.60;46.50;;;;;;6219227;22;87324;-81
2023/06/09 11:01:26;;;;;;;7.57;3.53;;;31.50;43.80;;;;;;6217825;22;87558;-81
2023/06/09 11:03:52;;;;;;;3.65;2.88;;;31.30;45.30;;;;;;6218637;22;87758;-81
2023/06/09 11:06:18;;;;;;;6.10;3.53;;;31.30;46.30;;;;;;6218141;22;87261;-81
2023/06/09 11:09:09;;;;;;;4.05;3.35;;;31.20;46.40;;;;;;6218898;22;87406;-81
2023/06/09 11:11:50;;;;;;;5.10;2.83;;;31.30;44.80;;;;;;6216961;22;89967;-82
2023/06/09 11:14:43;;;;;;;7.05;3.72;;;31.10;46.30;;;;;;6215168;22;88148;-82
2023/06/09 11:17:16;;;;;;;4.63;3.55;;;30.90;45.70;;;;;;6214781;22;87890;-80
2023/06/09 11:19:42;;;;;;;6.55;3.88;;;30.90;44.90;;;;;;6216419;22;87325;-81
2023/06/09 11:22:12;;;;;;;6.18;3.15;;;31.00;47.40;;;;;;6215414;22;88017;-81
2023/06/09 11:24:50;;;;;;;4.40;3.40;;;31.10;47.40;;;;;;6215175;22;88602;-82
2023/06/09 11:27:23;;;;;;;5.55;3.45;;;31.00;46.00;;;;;;6213762;22;87523;-82
2023/06/09 11:30:05;;;;;;;4.03;3.20;;;31.00;46.80;;;;;;6216076;22;86786;-82
2023/06/09 11:32:49;;;;;;;6.53;3.35;;;30.90;47.10;;;;;;6187200;22;91748;-82
2023/06/09 11:35:42;;;;;;;9.13;3.60;;;30.80;45.50;;;;;;6216427;22;87395;-86
2023/06/09 11:38:18;;;;;;;10.25;2.38;;;30.80;47.40;;;;;;6200188;22;88609;-83
2023/06/09 11:40:52;;;;;;;4.75;3.08;;;30.80;47.40;;;;;;6216265;22;87344;-84
2023/06/09 11:43:21;;;;;;;4.22;2.78;;;30.60;46.20;;;;;;6215423;22;88665;-85
2023/06/09 11:45:47;;;;;;;17.77;3.22;;;30.70;44.00;;;;;;6215412;22;87650;-83
2023/06/09 11:48:15;;;;;;;4.63;3.55;;;30.80;46.70;;;;;;6215797;22;87254;-84
2023/06/09 11:50:43;;;;;;;6.88;2.38;;;30.80;46.80;;;;;;6216021;22;87295;-86
2023/06/09 11:53:16;;;;;;;3.83;2.63;;;30.90;46.80;;;;;;6214791;22;88695;-83
2023/06/09 11:55:43;;;;;;;6.20;3.15;;;31.00;46.40;;;;;;6215124;22;88094;-90
2023/06/09 11:58:10;;;;;;;5.55;3.05;;;31.20;45.30;;;;;;6213753;22;87532;-84
2023/06/09 12:00:43;;;;;;;5.55;3.28;;;30.90;44.40;;;;;;6220513;22;87585;-83
2023/06/09 12:03:10;;;;;;;7.40;2.88;;;31.10;47.40;;;;;;6215946;22;89327;-83
2023/06/09 12:05:35;;;;;;;5.88;3.20;;;30.90;44.40;;;;;;6220447;22;87527;-84
2023/06/09 12:08:01;;;;;;;5.53;3.10;;;30.90;45.70;;;;;;6217538;22;87267;-81
2023/06/09 12:10:28;;;;;;;5.07;2.95;;;31.00;45.80;;;;;;6219880;22;87606;-81
2023/06/09 12:12:56;;;;;;;6.85;3.47;;;30.90;44.60;;;;;;6214942;22;88798;-82
2023/06/09 12:15:23;;;;;;;4.57;1.95;;;31.00;44.90;;;;;;6218269;22;88150;-82
2023/06/09 12:18:21;;;;;;;3.65;2.63;;;31.00;44.50;;;;;;6212268;22;87792;-83
2023/06/09 12:21:32;;;;;;;4.88;3.42;;;31.20;45.20;;;;;;6191907;22;86549;-85
2023/06/09 12:24:38;;;;;;;3.92;2.90;;;31.30;45.30;;;;;;6162203;22;91008;-82
2023/06/09 12:27:39;;;;;;;4.80;3.63;;;31.20;43.00;;;;;;6211939;22;88885;-88
2023/06/09 12:31:08;;;;;;;5.82;3.25;;;31.10;44.80;;;;;;6219845;22;87847;-86
2023/06/09 12:33:36;;;;;;;4.25;3.00;;;30.90;44.40;;;;;;6136495;22;87104;-85
2023/06/09 12:36:25;;;;;;;6.32;3.20;;;31.00;46.80;;;;;;6220264;22;88031;-85
2023/06/09 12:39:47;;;;;;;3.65;2.22;;;31.10;46.00;;;;;;6154732;22;90223;-84
2023/06/09 12:42:51;;;;;;;3.00;1.98;;;31.10;44.40;;;;;;6066197;23;87744;-85
2023/06/09 12:45:59;;;;;;;4.43;3.40;;;31.10;45.20;;;;;;6148880;22;87649;-86
2023/06/09 12:48:40;;;;;;;;;;;31.10;42.70;;;;;;6154721;22;91383;-87
2023/06/09 12:51:43;;;;;;;4.38;3.55;;;30.90;45.10;;;;;;6158230;22;89384;-86
2023/06/09 12:54:55;;;;;;;4.88;2.90;;;31.00;44.40;;;;;;6157607;22;87269;-88
2023/06/09 12:57:51;;;;;;;5.30;3.47;;;31.10;47.00;;;;;;6066226;23;87158;-89
2023/06/09 13:00:55;;;;;;;5.85;2.75;;;31.10;43.80;;;;;;6058190;23;90764;-86
2023/06/09 13:03:59;;;;;;;5.35;3.35;;;31.00;43.30;;;;;;6062127;23;90594;-87
2023/06/09 13:06:28;;;;;;;3.92;2.88;;;31.10;46.30;;;;;;6125776;22;87321;-86
2023/06/09 13:09:06;;;;;;;;;;;31.10;44.00;;;;;;6215815;22;87623;-87
2023/06/09 13:11:45;;;;;;;3.53;2.28;;;31.10;43.50;;;;;;6183836;22;90397;-78
2023/06/09 13:17:02;;;;;;;3.28;2.13;;;30.70;45.60;;;;;;6210557;22;89320;-70
2023/06/09 13:19:30;;;;;;;3.33;2.17;;;30.70;46.00;;;;;;6246161;22;86988;-73
2023/06/09 13:21:55;;;;;;;2.65;1.80;;;30.60;45.40;;;;;;6247778;22;88500;-72
2023/06/09 13:24:21;;;;;;;5.93;2.85;;;30.70;46.30;;;;;;6249576;22;88067;-72
2023/06/09 13:26:48;;;;;;;8.55;5.88;;;30.70;43.20;;;;;;6249037;22;88113;-72
2023/06/09 13:29:13;;;;;;;5.70;3.38;;;30.50;43.90;;;;;;6250636;22;87563;-70
2023/06/09 13:31:39;;;;;;;4.57;3.05;;;30.40;44.20;;;;;;6243157;22;87995;-71
2023/06/09 13:34:05;;;;;;;5.25;2.17;;;30.50;44.60;;;;;;6246845;22;87348;-72
2023/06/09 13:36:32;;;;;;;3.97;2.67;;;30.40;44.90;;;;;;6223220;22;87179;-71
2023/06/09 13:38:57;;;;;;;5.85;3.13;;;30.50;44.70;;;;;;6247251;22;87033;-71
2023/06/09 13:41:23;;;;;;;7.22;4.05;;;30.50;42.00;;;;;;6216277;22;88254;-72
2023/06/09 13:43:50;;;;;;;5.50;3.22;;;30.50;43.50;;;;;;6249624;22;88061;-70
2023/06/09 13:46:18;;;;;;;5.18;3.00;;;30.50;44.90;;;;;;6246803;22;87278;-71
2023/06/09 13:48:43;;;;;;;4.05;2.90;;;30.40;46.40;;;;;;6249023;22;87404;-71
2023/06/09 13:51:09;;;;;;;4.07;2.35;;;30.30;45.80;;;;;;6250049;22;88940;-71
2023/06/09 13:53:35;;;;;;;5.15;2.33;;;30.10;45.30;;;;;;6251120;22;88665;-71
2023/06/09 13:56:00;;;;;;;7.93;2.83;;;30.20;45.30;;;;;;6250625;22;87471;-71
2023/06/09 13:58:26;;;;;;;7.93;3.67;;;30.20;45.20;;;;;;6249200;22;87353;-71
2023/06/09 14:00:52;;;;;;;4.63;2.80;;;30.30;43.30;;;;;;6251322;22;87483;-71
2023/06/09 14:03:18;;;;;;;5.15;3.03;;;30.30;44.10;;;;;;6244600;22;87547;-71
2023/06/09 14:05:43;;;;;;;8.07;3.20;;;30.40;44.40;;;;;;6250828;22;87569;-71
2023/06/09 14:08:09;;;;;;;4.93;2.20;;;30.50;42.80;;;;;;6250035;22;86249;-70
2023/06/09 14:10:35;;;;;;;9.35;3.40;;;30.30;40.90;;;;;;6251345;22;88023;-70
2023/06/09 14:13:01;;;;;;;3.17;2.47;;;30.30;43.50;;;;;;6251729;22;87433;-70
2023/06/09 14:15:26;;;;;;;4.32;2.88;;;30.30;43.00;;;;;;6250414;22;88274;-71
2023/06/09 14:17:52;;;;;;;3.75;3.03;;;30.30;44.00;;;;;;6223925;22;87086;-71
2023/06/09 14:20:24;;;;;;;3.95;2.80;;;30.30;43.70;;;;;;6218240;22;87612;-72
2023/06/09 14:22:50;;;;;;;4.60;3.33;;;30.50;46.20;;;;;;6220025;22;87830;-71
2023/06/09 14:25:21;;;;;;;5.45;3.15;;;30.40;44.30;;;;;;6218162;22;87787;-71
2023/06/09 14:27:52;;;;;;;4.15;2.70;;;30.30;43.60;;;;;;6220227;22;86986;-71
2023/06/09 14:30:19;;;;;;;6.97;3.13;;;30.20;44.00;;;;;;6193019;22;89515;-71
2023/06/09 14:32:48;;;;;;;4.88;3.63;;;30.20;45.30;;;;;;6221094;22;87316;-71
2023/06/09 14:35:19;;;;;;;;;;;30.20;45.20;;;;;;6217486;22;86959;-70
2023/06/09 14:37:56;;;;;;;4.68;2.65;;;30.20;44.60;;;;;;6222386;22;87535;-71
2023/06/09 14:40:23;;;;;;;9.10;2.95;;;30.10;44.40;;;;;;6182895;22;90282;-71
2023/06/09 14:42:49;;;;;;;7.85;3.45;;;30.10;44.50;;;;;;6219466;22;87669;-70
2023/06/09 14:45:22;;;;;;;5.72;2.97;;;30.00;43.00;;;;;;6215637;22;87318;-71
2023/06/09 14:48:02;;;;;;;3.95;2.70;;;30.00;43.30;;;;;;6220645;22;86937;-71
2023/06/09 14:50:34;;;;;;;3.80;3.15;;;30.00;44.40;;;;;;6215032;22;88571;-70
2023/06/09 14:53:02;;;;;;;4.72;2.70;;;30.00;43.10;;;;;;6219378;22;87092;-70
2023/06/09 14:55:35;;;;;;;6.20;3.33;;;29.80;41.90;;;;;;6219507;22;86995;-70
2023/06/09 14:58:02;;;;;;;5.15;1.67;;;29.80;41.10;;;;;;6221605;22;86529;-70
2023/06/09 15:00:30;;;;;;;3.90;2.75;;;29.80;43.40;;;;;;6221295;22;88194;-70
2023/06/09 15:02:58;;;;;;;4.30;2.90;;;29.80;42.80;;;;;;6221495;22;87275;-70
2023/06/09 15:05:25;;;;;;;6.05;2.80;;;29.70;42.30;;;;;;6217278;22;88214;-70
2023/06/09 15:07:55;;;;;;;4.22;2.72;;;29.70;43.20;;;;;;6222482;22;87153;-70
2023/06/09 15:10:29;;;;;;;7.30;3.13;;;29.60;42.90;;;;;;6221339;22;87922;-70
2023/06/09 15:12:55;;;;;;;5.88;3.38;;;29.60;42.90;;;;;;6221114;22;87774;-70
2023/06/09 15:15:25;;;;;;;5.68;3.15;;;29.60;42.70;;;;;;6221516;22;87583;-70
2023/06/09 15:17:51;;;;;;;4.80;3.30;;;29.60;42.00;;;;;;6221412;22;87152;-70
2023/06/09 15:20:21;;;;;;;5.60;3.00;;;29.60;43.10;;;;;;6217626;22;88227;-70
2023/06/09 15:22:47;;;;;;;5.80;3.95;;;29.60;42.90;;;;;;6221202;22;87772;-70
2023/06/09 15:25:13;;;;;;;9.30;3.67;;;29.50;44.60;;;;;;6221480;22;87379;-70
2023/06/09 15:27:39;;;;;;;5.80;3.38;;;29.60;44.60;;;;;;6222903;22;87281;-70
2023/06/09 15:30:06;;;;;;;4.97;3.47;;;29.60;44.60;;;;;;6222377;22;88419;-70
2023/06/09 15:32:32;;;;;;;7.57;2.90;;;29.50;44.30;;;;;;6222861;22;88153;-70
2023/06/09 15:34:58;;;;;;;4.88;2.78;;;29.50;44.30;;;;;;6222798;22;87375;-70
2023/06/09 15:37:24;;;;;;;4.63;3.45;;;29.50;44.70;;;;;;6219602;22;87030;-70
2023/06/09 15:39:50;;;;;;;5.45;3.10;;;29.40;43.70;;;;;;6222627;22;87444;-70
2023/06/09 15:42:15;;;;;;;3.78;2.55;;;29.40;44.90;;;;;;6222836;22;87148;-70
2023/06/09 15:44:41;;;;;;;4.88;2.63;;;29.40;44.80;;;;;;6222635;22;87330;-70
2023/06/09 15:47:07;;;;;;;7.00;2.88;;;29.30;45.20;;;;;;6223438;22;86360;-70
2023/06/09 15:49:33;;;;;;;4.80;2.85;;;29.30;44.90;;;;;;6222641;22;87632;-70
2023/06/09 15:52:03;;;;;;;4.32;3.03;;;29.30;44.50;;;;;;6219143;22;88591;-70
2023/06/09 15:54:29;;;;;;;4.45;2.70;;;29.20;44.10;;;;;;6222380;22;88223;-70
2023/06/09 15:57:00;;;;;;;4.00;2.63;;;29.20;44.40;;;;;;6222721;22;87552;-70
2023/06/09 15:59:27;;;;;;;3.45;2.80;;;29.10;44.60;;;;;;6195728;22;89209;-70
2023/06/09 16:01:54;;;;;;;4.88;2.70;;;29.20;44.10;;;;;;6222524;22;87607;-70
2023/06/09 16:04:20;;;;;;;5.65;3.38;;;29.10;44.80;;;;;;6223127;22;86941;-70
2023/06/09 16:06:46;;;;;;;6.43;2.65;;;29.20;45.20;;;;;;6221791;22;87007;-71
2023/06/09 16:09:12;;;;;;;4.45;3.63;;;29.10;44.30;;;;;;6220017;22;87542;-70
2023/06/09 16:11:37;;;;;;;5.70;2.88;;;29.00;45.60;;;;;;6222680;22;87245;-70
2023/06/09 16:14:03;;;;;;;3.38;2.83;;;28.90;45.80;;;;;;6222731;22;87046;-70
2023/06/09 16:16:29;;;;;;;4.90;3.05;;;28.80;44.50;;;;;;6222981;22;87500;-70
2023/06/09 16:18:54;;;;;;;8.18;2.80;;;28.70;45.00;;;;;;6221513;22;88969;-70